Flight Track Log - Related Links

Times and Time Zones

All times are in EDT time to prevent confusion due to time zone crossing. See the N468ER flight status page for this flight to view local times or setup timezone preferences in your user account.

Time Position Orientation Groundspeed Altitude Reporting Facility
EDT Latitude Longitude Course Direction KTS MPH feet Rate Location/Type
Sat 04:27:53 PM 44.6408 -108.9611 North 74 85 7,900  Level Salt Lake Center
Sat 04:28:55 PM 44.6644 -108.9556 10° North 75 86 8,400 390 Climbing Salt Lake Center
Sat 04:29:56 PM 44.6844 -108.9467 18° North 77 89 8,700 341 Climbing Salt Lake Center
Sat 04:30:58 PM 44.7056 -108.9383 16° North 79 91 9,100 439 Climbing Salt Lake Center
Sat 04:31:59 PM 44.7311 -108.9311 11° North 81 93 9,600 341 Climbing Salt Lake Center
Sat 04:33:00 PM 44.6442 -108.9445 North  Level FlightAware Approximate
Sat 04:33:01 PM 44.7536 -108.9244 12° North 84 97 9,800  Level Salt Lake Center
Sat 04:34:02 PM 44.7792 -108.9192 North 84 97 10,100 146 Climbing Salt Lake Center
Sat 04:35:04 PM 44.8022 -108.9172 North 84 97 10,100  Level Salt Lake Center
Sat 04:36:05 PM 44.8319 -108.9075 13° North 96 110 10,100 -49 Level Salt Lake Center
Sat 04:37:07 PM 44.8681 -108.8972 11° North 110 127 10,000 -49 Descending Salt Lake Center
Sat 04:38:08 PM 44.8975 -108.8903 North 113 130 10,000 49 Level Salt Lake Center
Sat 04:39:10 PM 44.9303 -108.8828 North 110 127 10,100 98 Climbing Salt Lake Center
Sat 04:40:11 PM 44.9567 -108.8722 16° North 107 123 10,200 -49 Climbing Salt Lake Center
Sat 04:41:13 PM 44.9856 -108.8636 12° North 107 123 10,000 -98 Descending Salt Lake Center
Sat 04:42:14 PM 45.0178 -108.8522 14° North 108 124 10,000 49 Level Salt Lake Center
Sat 04:43:16 PM 45.0433 -108.8386 21° North 106 122 10,100  Climbing Salt Lake Center
Sat 04:44:17 PM 45.0742 -108.8281 14° North 103 119 10,000  Descending Salt Lake Center
Sat 04:45:19 PM 45.0986 -108.8203 13° North 98 113 10,100 98 Climbing Salt Lake Center
Sat 04:46:20 PM 45.1253 -108.8147 North 99 114 10,200 49 Climbing Salt Lake Center
Sat 04:47:22 PM 45.1558 -108.8067 11° North 105 121 10,200 -49 Level Salt Lake Center
Sat 04:48:23 PM 45.1847 -108.7975 13° North 108 124 10,100 -49 Descending Salt Lake Center
Sat 04:49:25 PM 45.2131 -108.7872 14° North 106 122 10,100  Level Salt Lake Center
Sat 04:50:26 PM 45.2397 -108.7828 North 92 106 10,100  Level Salt Lake Center
Sat 04:51:27 PM 45.2656 -108.7811 North 93 107 10,100  Level Salt Lake Center
Sat 04:52:29 PM 45.2972 -108.7797 North 104 120 10,100 48 Level Salt Lake Center
Sat 04:53:31 PM 45.3247 -108.7703 14° North 103 119 10,200  Climbing Salt Lake Center
Sat 04:54:32 PM 45.3550 -108.7592 14° North 112 129 10,100  Descending Salt Lake Center
Sat 04:55:33 PM 45.3872 -108.7478 14° North 111 128 10,200 -49 Climbing Salt Lake Center
Sat 04:56:35 PM 45.4169 -108.7375 14° North 112 129 10,000 -98 Descending Salt Lake Center
Sat 04:57:36 PM 45.4467 -108.7183 24° Northeast 109 125 10,000  Level Salt Lake Center
Sat 04:58:38 PM 45.4736 -108.7100 12° North 102 117 10,000 -146 Level Salt Lake Center
Sat 04:59:39 PM 45.4961 -108.6786 44° Northeast 126 145 9,700 -537 Descending Salt Lake Center
Sat 05:00:41 PM 45.5161 -108.6319 59° Northeast 128 147 8,900 -829 Descending Salt Lake Center
Sat 05:01:42 PM 45.5322 -108.5908 61° Northeast 123 142 8,000 -780 Descending Salt Lake Center
Sat 05:02:44 PM 45.5528 -108.5486 55° Northeast 121 139 7,300 -488 Descending Salt Lake Center
Sat 05:03:45 PM 45.5694 -108.5114 57° Northeast 114 131 7,000 -98 Descending Salt Lake Center
Sat 05:04:47 PM 45.5883 -108.4733 55° Northeast 110 127 7,100  Climbing Salt Lake Center
Sat 05:05:48 PM 45.6064 -108.4342 57° Northeast 120 138 7,000 -244 Descending Salt Lake Center
Sat 05:06:50 PM 45.6261 -108.3928 56° Northeast 127 146 6,600 -488 Descending Salt Lake Center
Sat 05:07:51 PM 45.6439 -108.3486 60° Northeast 118 136 6,000 -244 Descending Salt Lake Center
Sat 05:08:53 PM 45.6642 -108.3219 43° Northeast 105 121 6,100 49 Climbing Salt Lake Center
Sat 05:09:54 PM 45.6881 -108.2961 37° Northeast 102 117 6,100 -49 Level Salt Lake Center
Sat 05:10:56 PM 45.7144 -108.2958 360° North 96 110 6,000 -49 Descending Salt Lake Center
Sat 05:11:57 PM 45.7406 -108.3056 345° North 90 104 6,000 -341 Level Salt Lake Center
Sat 05:12:59 PM 45.7525 -108.3386 297° West 104 120 5,300 -341 Descending Salt Lake Center
Sat 05:14:00 PM 45.7619 -108.3744 291° West 100 115 5,300 -49 Level Salt Lake Center
Sat 05:15:02 PM 45.7722 -108.4108 292° West 93 107 5,200 -390 Descending Salt Lake Center
Sat 05:16:03 PM 45.7828 -108.4464 293° West 96 110 4,500 -537 Descending Salt Lake Center
Sat 05:17:05 PM 45.7911 -108.4792 290° West 83 96 4,100 -293 Descending Salt Lake Center
Sat 05:18:06 PM 45.8011 -108.5133 293° West 92 106 3,900 -197 Descending Salt Lake Center

Login

Don't have an account? Register now (free) for customized features, flight alerts, and more!